Time;durP1;ratioP1;P1;durP2;ratioP2;P2;SDS_P1;SDS_P2;PMS_P1;PMS_P2;Temp;Humidity;BMP_temperature;BMP_pressure;BME280_temperature;BME280_humidity;BME280_pressure;Samples;Min_cycle;Max_cycle;Signal;HPM_P1;HPM_P2
2023/05/16 14:50:43;;;;;;;;;;;;;;;;;;5192188;27;1435;-63
2023/05/16 14:53:10;;;;;;;;;;;;;;;;;;5191865;27;1217;-61
2023/05/16 14:55:37;;;;;;;;;;;;;;;;;;5172947;27;1084;-53
2023/05/16 14:58:05;;;;;;;;;;;;;;;;;;5192095;27;1262;-60
2023/05/16 15:00:32;;;;;;;;;;;;;;;;;;5191984;27;1187;-53
2023/05/16 15:03:01;;;;;;;;;;;;;;;;;;5191830;27;1086;-54
2023/05/16 15:05:29;;;;;;;;;;;;;;;;;;5191473;27;1098;-57
2023/05/16 15:07:57;;;;;;;;;;;;;;;;;;5191623;27;1019;-63
2023/05/16 15:10:24;;;;;;;;;;;;;;;;;;5191774;27;1974;-54
2023/05/16 15:12:52;;;;;;;;;;;;;;;;;;5191697;27;1000;-62
2023/05/16 15:15:19;;;;;;;;;;;;;;;;;;5191555;27;926;-57
2023/05/16 15:17:47;;;;;;;;;;;;;;;;;;5191319;27;1162;-60
2023/05/16 15:20:14;;;;;;;;;;;;;;;;;;5191307;27;1015;-60
2023/05/16 15:22:41;;;;;;;;;;;;;;;;;;5172402;27;1187;-57
2023/05/16 15:25:09;;;;;;;;;;;;;;;;;;5191431;27;951;-56
2023/05/16 15:27:37;;;;;;;;;;;;;;;;;;5191360;27;1367;-59
2023/05/16 15:30:04;;;;;;;;;;;;;;;;;;5191357;27;1974;-59
2023/05/16 15:32:32;;;;;;;;;;;;;;;;;;5190914;27;1036;-49
2023/05/16 15:34:59;;;;;;;;;;;;;;;;;;5191040;27;1067;-48
2023/05/16 15:37:27;;;;;;;;;;;;;;;;;;5190898;27;1215;-61
2023/05/16 15:39:54;;;;;;;;;;;;;;;;;;5190660;27;1057;-55
2023/05/16 15:42:21;;;;;;;;;;;;;;;;;;5191176;27;926;-60
2023/05/16 15:44:48;;;;;;;;;;;;;;;;;;5190939;27;919;-59
2023/05/16 15:47:16;;;;;;;;;;;;;;;;;;5190999;27;934;-61
2023/05/16 15:49:43;;;;;;;;;;;;;;;;;;5190697;27;1992;-62
2023/05/16 15:52:10;;;;;;;;;;;;;;;;;;5190802;27;954;-52
2023/05/16 15:54:37;;;;;;;;;;;;;;;;;;5190963;27;1208;-58
2023/05/16 15:57:05;;;;;;;;;;;;;;;;;;5186722;27;1277;-63
2023/05/16 15:59:32;;;;;;;;;;;;;;;;;;5169722;27;973;-65
2023/05/16 16:02:04;;;;;;;;;;;;;;;;;;5166050;27;1092;-64
2023/05/16 16:04:31;;;;;;;;;;;;;;;;;;5176754;27;983;-56
2023/05/16 16:07:01;;;;;;;;;;;;;;;;;;5176499;27;1195;-63
2023/05/16 16:09:28;;;;;;;;;;;;;;;;;;5176677;27;2004;-62
2023/05/16 16:11:57;;;;;;;;;;;;;;;;;;5176334;27;1054;-58
2023/05/16 16:14:24;;;;;;;;;;;;;;;;;;5176657;27;1141;-58
2023/05/16 16:16:52;;;;;;;;;;;;;;;;;;5176342;27;1338;-56
2023/05/16 16:19:19;;;;;;;;;;;;;;;;;;5176298;27;1250;-60
2023/05/16 16:21:47;;;;;;;;;;;;;;;;;;5176341;27;1011;-63
2023/05/16 16:24:14;;;;;;;;;;;;;;;;;;5176262;27;996;-56
2023/05/16 16:26:42;;;;;;;;;;;;;;;;;;5176492;27;1075;-57
2023/05/16 16:29:09;;;;;;;;;;;;;;;;;;5175938;27;1894;-60
2023/05/16 16:31:38;;;;;;;;;;;;;;;;;;5175250;27;1297;-62
2023/05/16 16:34:05;;;;;;;;;;;;;;;;;;5176175;27;1140;-56
2023/05/16 16:36:33;;;;;;;;;;;;;;;;;;5176078;27;895;-57
2023/05/16 16:39:00;;;;;;;;;;;;;;;;;;5175951;27;941;-57
2023/05/16 16:41:27;;;;;;;;;;;;;;;;;;5175861;27;1202;-64
2023/05/16 16:43:55;;;;;;;;;;;;;;;;;;5175513;27;921;-60
2023/05/16 16:46:23;;;;;;;;;;;;;;;;;;5176113;27;1060;-60
2023/05/16 16:48:51;;;;;;;;;;;;;;;;;;5175366;27;1905;-57
2023/05/16 16:51:18;;;;;;;;;;;;;;;;;;5175312;27;967;-60
2023/05/16 16:53:45;;;;;;;;;;;;;;;;;;5175803;27;910;-59
2023/05/16 16:56:13;;;;;;;;;;;;;;;;;;5175890;27;1191;-60
2023/05/16 16:58:40;;;;;;;;;;;;;;;;;;5175816;27;1297;-60
2023/05/16 17:01:07;;;;;;;;;;;;;;;;;;5175627;27;954;-54
2023/05/16 17:03:35;;;;;;;;;;;;;;;;;;5175488;27;1050;-63
2023/05/16 17:06:02;;;;;;;;;;;;;;;;;;5175342;27;1268;-59
2023/05/16 17:08:29;;;;;;;;;;;;;;;;;;5175616;27;931;-55
2023/05/16 17:10:58;;;;;;;;;;;;;;;;;;5175144;27;1901;-62
2023/05/16 17:13:32;;;;;;;;;;;;;;;;;;5174417;27;966;-61
2023/05/16 17:16:00;;;;;;;;;;;;;;;;;;5175365;27;1002;-61
2023/05/16 17:18:27;;;;;;;;;;;;;;;;;;5175058;27;950;-59
2023/05/16 17:20:55;;;;;;;;;;;;;;;;;;5175089;27;1026;-60
2023/05/16 17:23:23;;;;;;;;;;;;;;;;;;5174957;27;1353;-56
2023/05/16 17:25:50;;;;;;;;;;;;;;;;;;5175112;27;993;-60
2023/05/16 17:28:17;;;;;;;;;;;;;;;;;;5156581;27;1200;-61
2023/05/16 17:30:45;;;;;;;;;;;;;;;;;;5175306;27;1906;-62
2023/05/16 17:33:12;;;;;;;;;;;;;;;;;;5174914;27;1200;-67
2023/05/16 17:35:40;;;;;;;;;;;;;;;;;;5175128;27;1028;-66
2023/05/16 17:38:09;;;;;;;;;;;;;;;;;;5174779;27;1186;-63
2023/05/16 17:40:36;;;;;;;;;;;;;;;;;;5174679;27;1042;-65
2023/05/16 17:43:04;;;;;;;;;;;;;;;;;;5174363;27;1133;-58
2023/05/16 17:45:32;;;;;;;;;;;;;;;;;;5174930;27;1374;-65
2023/05/16 17:47:59;;;;;;;;;;;;;;;;;;5174493;27;1059;-66
2023/05/16 17:50:28;;;;;;;;;;;;;;;;;;5174253;27;1901;-60
2023/05/16 17:52:55;;;;;;;;;;;;;;;;;;5174445;27;1130;-55
2023/05/16 17:55:23;;;;;;;;;;;;;;;;;;5174592;27;970;-61
2023/05/16 17:57:50;;;;;;;;;;;;;;;;;;5163590;27;1261;-61
2023/05/16 18:00:18;;;;;;;;;;;;;;;;;;5153731;27;970;-58
2023/05/16 18:02:46;;;;;;;;;;;;;;;;;;5153809;27;1206;-62
2023/05/16 18:05:15;;;;;;;;;;;;;;;;;;5153664;27;1003;-56
2023/05/16 18:07:42;;;;;;;;;;;;;;;;;;5153395;27;1167;-64
2023/05/16 18:10:10;;;;;;;;;;;;;;;;;;5153339;27;1992;-58
2023/05/16 18:12:37;;;;;;;;;;;;;;;;;;5153407;27;1125;-58
2023/05/16 18:15:05;;;;;;;;;;;;;;;;;;5153332;27;894;-65
2023/05/16 18:17:32;;;;;;;;;;;;;;;;;;5153034;27;1109;-57
2023/05/16 18:20:08;;;;;;;;;;;;;;;;;;5153241;27;1101;-60
2023/05/16 18:22:38;;;;;;;;;;;;;;;;;;5153195;27;1092;-63
2023/05/16 18:25:08;;;;;;;;;;;;;;;;;;5152736;27;1169;-63
2023/05/16 18:27:36;;;;;;;;;;;;;;;;;;5171578;27;1088;-53
2023/05/16 18:30:06;;;;;;;;;;;;;;;;;;5173747;27;1901;-62
2023/05/16 18:32:35;;;;;;;;;;;;;;;;;;5173888;27;1084;-57
2023/05/16 18:35:02;;;;;;;;;;;;;;;;;;5173685;27;2296;-59
2023/05/16 18:37:29;;;;;;;;;;;;;;;;;;5173640;27;2004;-62
2023/05/16 18:39:57;;;;;;;;;;;;;;;;;;5173929;27;1814;-63
2023/05/16 18:42:25;;;;;;;;;;;;;;;;;;5173613;27;1713;-55
2023/05/16 18:44:53;;;;;;;;;;;;;;;;;;5173578;27;1984;-55
2023/05/16 18:47:20;;;;;;;;;;;;;;;;;;5173865;27;1962;-55
2023/05/16 18:49:47;;;;;;;;;;;;;;;;;;5173780;27;1988;-59
2023/05/16 18:52:14;;;;;;;;;;;;;;;;;;5172958;27;1871;-60
2023/05/16 18:54:42;;;;;;;;;;;;;;;;;;5173369;27;2068;-57
2023/05/16 18:57:10;;;;;;;;;;;;;;;;;;5168549;27;1651;-55
2023/05/16 18:59:37;;;;;;;;;;;;;;;;;;5152935;27;2119;-52
2023/05/16 19:02:04;;;;;;;;;;;;;;;;;;5152582;27;1814;-57
2023/05/16 19:04:32;;;;;;;;;;;;;;;;;;5152688;27;1785;-57
2023/05/16 19:06:59;;;;;;;;;;;;;;;;;;5152510;27;1071;-53
2023/05/16 19:09:31;;;;;;;;;;;;;;;;;;5152603;27;1901;-61
2023/05/16 19:11:59;;;;;;;;;;;;;;;;;;5152604;27;1939;-56
2023/05/16 19:14:26;;;;;;;;;;;;;;;;;;5152928;27;1701;-56
2023/05/16 19:16:54;;;;;;;;;;;;;;;;;;5152816;27;2020;-58
2023/05/16 19:19:22;;;;;;;;;;;;;;;;;;5153037;27;1432;-60
2023/05/16 19:21:49;;;;;;;;;;;;;;;;;;5152843;27;1844;-62
2023/05/16 19:24:17;;;;;;;;;;;;;;;;;;5152275;27;1977;-56
2023/05/16 19:26:44;;;;;;;;;;;;;;;;;;5152532;27;1829;-57
2023/05/16 19:29:11;;;;;;;;;;;;;;;;;;5152530;27;1746;-61
2023/05/16 19:31:39;;;;;;;;;;;;;;;;;;5152320;27;1894;-59
2023/05/16 19:34:07;;;;;;;;;;;;;;;;;;5152395;27;1786;-62
2023/05/16 19:36:34;;;;;;;;;;;;;;;;;;5154573;27;2155;-56
2023/05/16 19:39:01;;;;;;;;;;;;;;;;;;5156449;27;1638;-61
2023/05/16 19:41:28;;;;;;;;;;;;;;;;;;5156397;27;1888;-60
2023/05/16 19:44:06;;;;;;;;;;;;;;;;;;5156215;27;1750;-57
2023/05/16 19:46:39;;;;;;;;;;;;;;;;;;5137107;27;2007;-60
2023/05/16 19:49:25;;;;;;;;;;;;;;;;;;5155917;27;1629;-62
2023/05/16 19:51:57;;;;;;;;;;;;;;;;;;5156155;27;1914;-61
2023/05/16 19:54:34;;;;;;;;;;;;;;;;;;5155972;27;1558;-63
2023/05/16 19:57:08;;;;;;;;;;;;;;;;;;5155848;27;1892;-57
2023/05/16 19:59:41;;;;;;;;;;;;;;;;;;5155642;27;1323;-58
2023/05/16 20:02:21;;;;;;;;;;;;;;;;;;5155996;27;2201;-59
2023/05/16 20:05:00;;;;;;;;;;;;;;;;;;5155874;27;1747;-60
2023/05/16 20:07:32;;;;;;;;;;;;;;;;;;5155714;27;1263;-64
2023/05/16 20:10:08;;;;;;;;;;;;;;;;;;5155419;27;2002;-63
2023/05/16 20:12:41;;;;;;;;;;;;;;;;;;5155384;27;1754;-59
2023/05/16 20:15:14;;;;;;;;;;;;;;;;;;5155716;27;1600;-63
2023/05/16 20:17:47;;;;;;;;;;;;;;;;;;5136920;27;1771;-64
2023/05/16 20:20:23;;;;;;;;;;;;;;;;;;5157583;27;1986;-61
2023/05/16 20:22:51;;;;;;;;;;;;;;;;;;5169540;27;1884;-64
2023/05/16 20:25:18;;;;;;;;;;;;;;;;;;5176122;27;1680;-55
2023/05/16 20:27:45;;;;;;;;;;;;;;;;;;5176335;27;1968;-60
2023/05/16 20:30:12;;;;;;;;;;;;;;;;;;5176188;27;1909;-60
2023/05/16 20:32:40;;;;;;;;;;;;;;;;;;5176200;27;1630;-59
2023/05/16 20:35:09;;;;;;;;;;;;;;;;;;5175804;27;1946;-60
2023/05/16 20:37:37;;;;;;;;;;;;;;;;;;5176154;27;1737;-57
2023/05/16 20:40:05;;;;;;;;;;;;;;;;;;5175932;27;1511;-58
2023/05/16 20:42:32;;;;;;;;;;;;;;;;;;5175960;27;1461;-62
2023/05/16 20:45:00;;;;;;;;;;;;;;;;;;5175962;27;2208;-57
2023/05/16 20:47:28;;;;;;;;;;;;;;;;;;5175909;27;1914;-63
2023/05/16 20:49:55;;;;;;;;;;;;;;;;;;5175998;27;1921;-63
2023/05/16 20:52:22;;;;;;;;;;;;;;;;;;5175793;27;1522;-59
2023/05/16 20:54:52;;;;;;;;;;;;;;;;;;5175684;27;1778;-61
2023/05/16 20:57:20;;;;;;;;;;;;;;;;;;5175571;27;1615;-63
2023/05/16 20:59:47;;;;;;;;;;;;;;;;;;5156966;27;2360;-64
2023/05/16 21:02:14;;;;;;;;;;;;;;;;;;5175530;27;1927;-59
2023/05/16 21:04:42;;;;;;;;;;;;;;;;;;5175487;27;1497;-63
2023/05/16 21:07:10;;;;;;;;;;;;;;;;;;5175361;27;2072;-57
2023/05/16 21:09:38;;;;;;;;;;;;;;;;;;5175598;27;2200;-60
2023/05/16 21:12:06;;;;;;;;;;;;;;;;;;5175233;27;1913;-62
2023/05/16 21:14:33;;;;;;;;;;;;;;;;;;5175392;27;1586;-65
2023/05/16 21:17:00;;;;;;;;;;;;;;;;;;5175237;27;1854;-49
2023/05/16 21:19:32;;;;;;;;;;;;;;;;;;5175408;27;2120;-58
2023/05/16 21:22:02;;;;;;;;;;;;;;;;;;5175248;27;1527;-56
2023/05/16 21:24:33;;;;;;;;;;;;;;;;;;5175351;27;1816;-60
2023/05/16 21:27:01;;;;;;;;;;;;;;;;;;5175153;27;1708;-64
2023/05/16 21:29:28;;;;;;;;;;;;;;;;;;5175241;27;1624;-55
2023/05/16 21:31:56;;;;;;;;;;;;;;;;;;5175277;27;1941;-60
2023/05/16 21:34:23;;;;;;;;;;;;;;;;;;5175004;27;1623;-55
2023/05/16 21:36:50;;;;;;;;;;;;;;;;;;5175025;27;1951;-63
2023/05/16 21:39:18;;;;;;;;;;;;;;;;;;5174903;27;1973;-62
2023/05/16 21:41:45;;;;;;;;;;;;;;;;;;5174457;27;1392;-62
2023/05/16 21:44:15;;;;;;;;;;;;;;;;;;5174600;27;1749;-61
2023/05/16 21:46:44;;;;;;;;;;;;;;;;;;5174782;27;1471;-55
2023/05/16 21:49:11;;;;;;;;;;;;;;;;;;5174478;27;1578;-55
2023/05/16 21:51:39;;;;;;;;;;;;;;;;;;5174394;27;2053;-53
2023/05/16 21:54:06;;;;;;;;;;;;;;;;;;5174611;27;1922;-62
2023/05/16 21:56:33;;;;;;;;;;;;;;;;;;5174644;27;1396;-56
2023/05/16 21:59:01;;;;;;;;;;;;;;;;;;5153109;27;2068;-61
2023/05/16 22:01:28;;;;;;;;;;;;;;;;;;5135092;27;1647;-58
2023/05/16 22:03:56;;;;;;;;;;;;;;;;;;5153378;27;1628;-55
2023/05/16 22:06:23;;;;;;;;;;;;;;;;;;5153365;27;1836;-56
2023/05/16 22:08:51;;;;;;;;;;;;;;;;;;5152875;27;1832;-58
2023/05/16 22:11:18;;;;;;;;;;;;;;;;;;5153235;27;1894;-56
2023/05/16 22:13:45;;;;;;;;;;;;;;;;;;5153495;27;1553;-57
2023/05/16 22:16:14;;;;;;;;;;;;;;;;;;5153135;27;1870;-61
2023/05/16 22:18:42;;;;;;;;;;;;;;;;;;5153222;27;1977;-59
2023/05/16 22:21:10;;;;;;;;;;;;;;;;;;5153290;27;1578;-57
2023/05/16 22:23:37;;;;;;;;;;;;;;;;;;5153259;27;2091;-60
2023/05/16 22:26:05;;;;;;;;;;;;;;;;;;5153387;27;2122;-59
2023/05/16 22:28:32;;;;;;;;;;;;;;;;;;5153292;27;1749;-60
2023/05/16 22:30:59;;;;;;;;;;;;;;;;;;5153083;27;1902;-59
2023/05/16 22:33:27;;;;;;;;;;;;;;;;;;5152703;27;2004;-58
2023/05/16 22:35:55;;;;;;;;;;;;;;;;;;5152842;27;1872;-60
2023/05/16 22:38:24;;;;;;;;;;;;;;;;;;5152713;27;1864;-60
2023/05/16 22:40:52;;;;;;;;;;;;;;;;;;5152966;27;1286;-58
2023/05/16 22:43:19;;;;;;;;;;;;;;;;;;5153038;27;2106;-60
2023/05/16 22:45:46;;;;;;;;;;;;;;;;;;5134794;27;1962;-61
2023/05/16 22:48:14;;;;;;;;;;;;;;;;;;5152749;27;1817;-58
2023/05/16 22:50:41;;;;;;;;;;;;;;;;;;5152309;27;1968;-53
2023/05/16 22:53:08;;;;;;;;;;;;;;;;;;5152762;27;1511;-64
2023/05/16 22:55:35;;;;;;;;;;;;;;;;;;5152841;27;1992;-60
2023/05/16 22:58:03;;;;;;;;;;;;;;;;;;5165125;27;2258;-61
2023/05/16 23:00:30;;;;;;;;;;;;;;;;;;5173672;27;1889;-64
2023/05/16 23:02:57;;;;;;;;;;;;;;;;;;5173498;27;1865;-63
2023/05/16 23:05:24;;;;;;;;;;;;;;;;;;5173508;27;1570;-57
2023/05/16 23:07:52;;;;;;;;;;;;;;;;;;5173560;27;1655;-63
2023/05/16 23:10:19;;;;;;;;;;;;;;;;;;5173646;27;1533;-57
2023/05/16 23:12:46;;;;;;;;;;;;;;;;;;5177586;27;2249;-65
2023/05/16 23:15:13;;;;;;;;;;;;;;;;;;5177749;27;1686;-65
2023/05/16 23:17:40;;;;;;;;;;;;;;;;;;5177521;27;1646;-57
2023/05/16 23:20:08;;;;;;;;;;;;;;;;;;5177653;27;1613;-55
2023/05/16 23:22:35;;;;;;;;;;;;;;;;;;5177656;27;1717;-60
2023/05/16 23:25:03;;;;;;;;;;;;;;;;;;5177754;27;1677;-62
2023/05/16 23:27:30;;;;;;;;;;;;;;;;;;5177530;27;1802;-56
2023/05/16 23:30:00;;;;;;;;;;;;;;;;;;5177457;27;2213;-66
2023/05/16 23:32:28;;;;;;;;;;;;;;;;;;5158977;27;1973;-61
2023/05/16 23:34:55;;;;;;;;;;;;;;;;;;5177320;27;1682;-60
2023/05/16 23:37:23;;;;;;;;;;;;;;;;;;5177358;27;1468;-60
2023/05/16 23:39:50;;;;;;;;;;;;;;;;;;5177061;27;1584;-65
2023/05/16 23:42:17;;;;;;;;;;;;;;;;;;5177057;27;2205;-65
2023/05/16 23:44:45;;;;;;;;;;;;;;;;;;5176940;27;1934;-65
2023/05/16 23:47:12;;;;;;;;;;;;;;;;;;5177168;27;1973;-65
2023/05/16 23:49:39;;;;;;;;;;;;;;;;;;5176927;27;2152;-54
2023/05/16 23:52:07;;;;;;;;;;;;;;;;;;5177118;27;2139;-64
2023/05/16 23:54:34;;;;;;;;;;;;;;;;;;5176855;27;1997;-58
2023/05/16 23:57:01;;;;;;;;;;;;;;;;;;5173179;27;1935;-61
2023/05/16 23:59:29;;;;;;;;;;;;;;;;;;5156172;27;2071;-60
